createdAt,value
2019-03-09T00:00:31.998Z,8.53
2019-03-09T00:01:31.961Z,8.51
2019-03-09T00:02:31.919Z,8.56
2019-03-09T00:03:31.882Z,8.53
2019-03-09T00:04:31.837Z,8.56
2019-03-09T00:05:31.795Z,8.61
2019-03-09T00:06:31.753Z,8.56
2019-03-09T00:07:31.711Z,8.58
2019-03-09T00:08:31.671Z,8.61
2019-03-09T00:09:31.632Z,8.64
2019-03-09T00:10:31.593Z,8.63
2019-03-09T00:11:31.553Z,8.64
2019-03-09T00:12:31.512Z,8.61
2019-03-09T00:13:31.467Z,8.63
2019-03-09T00:14:31.425Z,8.63
2019-03-09T00:15:31.389Z,8.67
2019-03-09T00:16:31.348Z,8.60
2019-03-09T00:17:31.304Z,8.61
2019-03-09T00:18:31.261Z,8.58
2019-03-09T00:19:31.219Z,8.60
2019-03-09T00:20:31.180Z,8.64
2019-03-09T00:21:31.142Z,8.58
2019-03-09T00:22:31.105Z,8.58
2019-03-09T00:23:31.063Z,8.63
2019-03-09T00:24:31.019Z,8.66
2019-03-09T00:25:30.977Z,8.67
2019-03-09T00:26:30.935Z,8.69
2019-03-09T00:27:30.893Z,8.61
2019-03-09T00:28:30.856Z,8.52
2019-03-09T00:29:30.852Z,8.52
2019-03-09T00:30:30.776Z,8.56
2019-03-09T00:31:30.739Z,8.67
2019-03-09T00:32:30.698Z,8.56
2019-03-09T00:33:30.656Z,8.70
2019-03-09T00:34:30.615Z,8.69
2019-03-09T00:35:30.573Z,8.64
2019-03-09T00:36:30.530Z,8.66
2019-03-09T00:37:30.490Z,8.69
2019-03-09T00:38:30.444Z,8.69
2019-03-09T00:39:30.404Z,8.66
2019-03-09T00:40:30.366Z,8.61
2019-03-09T00:41:30.328Z,8.61
2019-03-09T00:42:30.290Z,8.61
2019-03-09T00:43:30.248Z,8.63
2019-03-09T00:44:30.206Z,8.63
2019-03-09T00:45:30.166Z,8.67
2019-03-09T00:46:30.117Z,8.67
2019-03-09T00:47:30.083Z,8.67
2019-03-09T00:48:30.040Z,8.63
2019-03-09T00:49:29.998Z,8.61
2019-03-09T00:50:29.954Z,8.60
2019-03-09T00:51:29.914Z,8.64
2019-03-09T00:52:29.875Z,8.55
2019-03-09T00:53:29.836Z,8.61
2019-03-09T00:54:29.797Z,8.61
2019-03-09T00:55:29.758Z,8.61
2019-03-09T00:56:29.714Z,8.49
2019-03-09T00:57:29.671Z,8.60
2019-03-09T00:58:29.626Z,8.53
2019-03-09T00:59:29.586Z,8.46
2019-03-09T01:00:29.552Z,8.48
2019-03-09T01:01:29.509Z,8.51
2019-03-09T01:02:29.470Z,8.36
2019-03-09T01:03:29.423Z,8.42
2019-03-09T01:04:29.385Z,8.33
2019-03-09T01:05:29.347Z,8.34
2019-03-09T01:06:29.306Z,8.30
2019-03-09T01:07:29.281Z,8.13
2019-03-09T01:08:29.224Z,8.13
2019-03-09T01:09:29.181Z,8.19
2019-03-09T01:10:29.138Z,8.26
2019-03-09T01:11:29.095Z,8.24
2019-03-09T01:12:29.060Z,8.01
2019-03-09T01:13:29.019Z,8.03
2019-03-09T01:14:28.981Z,8.01
2019-03-09T01:15:28.941Z,8.08
2019-03-09T01:16:28.896Z,7.94
2019-03-09T01:17:28.853Z,7.98
2019-03-09T01:18:28.810Z,8.12
2019-03-09T01:19:28.777Z,8.08
2019-03-09T01:20:28.735Z,8.05
2019-03-09T01:21:28.743Z,8.09
2019-03-09T01:22:28.649Z,8.05
2019-03-09T01:23:28.605Z,8.10
2019-03-09T01:24:28.568Z,7.97
2019-03-09T01:25:28.528Z,8.05
2019-03-09T01:26:28.488Z,8.05
2019-03-09T01:27:28.448Z,8.00
2019-03-09T01:28:28.404Z,7.97
2019-03-09T01:29:28.362Z,8.01
2019-03-09T01:30:28.319Z,8.10
2019-03-09T01:31:28.277Z,8.00
2019-03-09T01:32:28.238Z,8.06
2019-03-09T01:33:28.204Z,8.00
2019-03-09T01:34:28.160Z,8.01
2019-03-09T01:35:28.113Z,8.05
2019-03-09T01:36:28.075Z,8.03
2019-03-09T01:37:28.034Z,7.98
2019-03-09T01:38:27.996Z,8.05
2019-03-09T01:39:27.955Z,7.98
2019-03-09T01:40:27.913Z,8.00
2019-03-09T01:41:27.871Z,7.95
2019-03-09T01:42:27.840Z,7.98
2019-03-09T01:43:27.785Z,7.95
2019-03-09T01:44:27.746Z,7.93
2019-03-09T01:45:27.707Z,7.94
2019-03-09T01:46:27.672Z,7.98
2019-03-09T01:47:27.626Z,7.90
2019-03-09T01:48:27.584Z,7.85
2019-03-09T01:49:27.540Z,7.93
2019-03-09T01:50:27.497Z,7.97
2019-03-09T01:51:27.463Z,7.97
2019-03-09T01:52:27.419Z,7.97
2019-03-09T01:53:36.258Z,7.93
2019-03-09T01:54:27.332Z,7.85
2019-03-09T01:55:27.294Z,7.85
2019-03-09T01:56:27.251Z,7.87
2019-03-09T01:57:27.213Z,7.85
2019-03-09T01:58:27.173Z,7.85
2019-03-09T01:59:27.133Z,7.87
2019-03-09T02:00:27.092Z,7.83
2019-03-09T02:01:27.047Z,7.85
2019-03-09T02:02:27.003Z,7.75
2019-03-09T02:03:26.963Z,7.85
2019-03-09T02:04:26.926Z,7.73
2019-03-09T02:05:26.886Z,7.69
2019-03-09T02:06:26.888Z,7.67
2019-03-09T02:07:26.797Z,7.70
2019-03-09T02:08:26.758Z,7.66
2019-03-09T02:09:26.719Z,7.70
2019-03-09T02:10:26.680Z,7.73
2019-03-09T02:11:26.639Z,7.70
2019-03-09T02:12:26.595Z,7.77
2019-03-09T02:13:26.562Z,7.80
2019-03-09T02:14:26.508Z,7.73
2019-03-09T02:15:26.467Z,7.63
2019-03-09T02:16:26.429Z,7.77
2019-03-09T02:17:26.390Z,7.67
2019-03-09T02:18:26.350Z,7.66
2019-03-09T02:19:26.311Z,7.70
2019-03-09T02:20:26.266Z,7.67
2019-03-09T02:21:26.230Z,7.66
2019-03-09T02:22:26.181Z,7.61
2019-03-09T02:23:26.145Z,7.54
2019-03-09T02:24:26.101Z,7.58
2019-03-09T02:25:26.058Z,7.56
2019-03-09T02:26:26.014Z,7.63
2019-03-09T02:27:25.973Z,7.56
2019-03-09T02:28:25.935Z,7.66
2019-03-09T02:29:25.899Z,7.56
2019-03-09T02:30:25.858Z,7.67
2019-03-09T02:31:25.826Z,7.60
2019-03-09T02:32:25.775Z,7.56
2019-03-09T02:33:25.729Z,7.54
2019-03-09T02:34:25.684Z,7.66
2019-03-09T02:35:25.646Z,7.63
2019-03-09T02:36:25.607Z,7.61
2019-03-09T02:37:25.567Z,7.63
2019-03-09T02:38:25.526Z,7.66
2019-03-09T02:39:25.483Z,7.63
2019-03-09T02:40:25.441Z,7.70
2019-03-09T02:41:25.401Z,7.72
2019-03-09T02:42:25.361Z,7.69
2019-03-09T02:43:25.323Z,7.60
2019-03-09T02:44:25.277Z,7.69
2019-03-09T02:45:25.264Z,7.57
2019-03-09T02:46:25.197Z,7.76
2019-03-09T02:47:25.148Z,7.72
2019-03-09T02:48:25.108Z,7.69
2019-03-09T02:49:25.070Z,7.67
2019-03-09T02:50:25.034Z,7.63
2019-03-09T02:51:24.994Z,7.69
2019-03-09T02:52:24.950Z,7.66
2019-03-09T02:53:24.904Z,7.60
2019-03-09T02:54:24.860Z,7.70
2019-03-09T02:55:24.826Z,7.58
2019-03-09T02:56:24.787Z,7.57
2019-03-09T02:57:24.738Z,7.70
2019-03-09T02:58:24.702Z,7.67
2019-03-09T02:59:24.688Z,7.66
2019-03-09T03:00:24.640Z,7.61
2019-03-09T03:01:24.574Z,7.69
2019-03-09T03:02:24.535Z,7.60
2019-03-09T03:03:24.495Z,7.63
2019-03-09T03:04:24.451Z,7.67
2019-03-09T03:05:24.410Z,7.66
2019-03-09T03:06:24.366Z,7.72
2019-03-09T03:07:24.322Z,7.69
2019-03-09T03:08:24.283Z,7.72
2019-03-09T03:09:24.245Z,7.67
2019-03-09T03:10:24.205Z,7.66
2019-03-09T03:11:24.157Z,7.72
2019-03-09T03:12:24.120Z,7.66
2019-03-09T03:13:24.082Z,7.73
2019-03-09T03:14:24.039Z,7.70
2019-03-09T03:15:23.999Z,7.67
2019-03-09T03:16:23.958Z,7.69
2019-03-09T03:17:23.916Z,7.79
2019-03-09T03:18:23.871Z,7.82
2019-03-09T03:19:23.831Z,7.75
2019-03-09T03:20:23.790Z,7.82
2019-03-09T03:21:23.751Z,7.77
2019-03-09T03:22:23.710Z,7.79
2019-03-09T03:23:23.669Z,7.93
2019-03-09T03:24:23.631Z,7.85
2019-03-09T03:25:23.584Z,7.91
2019-03-09T03:26:23.541Z,7.83
2019-03-09T03:27:23.503Z,7.88
2019-03-09T03:28:23.463Z,7.97
2019-03-09T03:29:23.418Z,7.94
2019-03-09T03:43:35.682Z,8.01
2019-03-09T03:44:44.280Z,8.05
2019-03-09T03:46:29.124Z,8.08
2019-03-09T03:47:29.077Z,8.01
2019-03-09T03:48:29.027Z,8.08
2019-03-09T03:49:28.989Z,8.03
2019-03-09T03:50:28.944Z,8.03
2019-03-09T03:51:28.917Z,8.06
2019-03-09T03:52:28.860Z,8.08
2019-03-09T03:53:28.815Z,8.09
2019-03-09T03:54:28.773Z,8.10
2019-03-09T03:55:28.727Z,8.16
2019-03-09T03:56:28.685Z,8.15
2019-03-09T03:57:28.650Z,8.24
2019-03-09T03:58:28.604Z,8.15
2019-03-09T03:59:28.579Z,8.24
2019-03-09T04:00:28.522Z,8.24
2019-03-09T04:01:28.481Z,8.23
2019-03-09T04:02:28.435Z,8.23
2019-03-09T04:03:28.394Z,8.18
2019-03-09T04:04:28.359Z,8.31
2019-03-09T04:05:28.315Z,8.34
2019-03-09T04:06:28.276Z,8.33
2019-03-09T04:07:28.226Z,8.27
2019-03-09T04:08:28.185Z,8.37
2019-03-09T04:09:28.143Z,8.45
2019-03-09T04:10:28.108Z,8.45
2019-03-09T04:11:28.092Z,8.52
2019-03-09T04:12:28.025Z,8.53
2019-03-09T04:13:27.985Z,8.55
2019-03-09T04:14:27.937Z,8.55
2019-03-09T04:15:27.900Z,8.56
2019-03-09T04:16:27.851Z,8.56
2019-03-09T04:17:27.824Z,8.51
2019-03-09T04:18:27.772Z,8.56
2019-03-09T04:19:27.735Z,8.60
2019-03-09T04:20:27.728Z,8.61
2019-03-09T04:21:27.659Z,8.56
2019-03-09T04:22:27.607Z,8.53
2019-03-09T04:23:27.575Z,8.56
2019-03-09T04:24:27.529Z,8.58
2019-03-09T04:25:27.489Z,8.61
2019-03-09T04:26:27.442Z,8.56
2019-03-09T04:27:27.401Z,8.61
2019-03-09T04:28:27.362Z,8.70
2019-03-09T04:29:27.322Z,8.60
2019-03-09T04:30:27.286Z,8.56
2019-03-09T04:31:27.240Z,8.55
2019-03-09T04:32:27.201Z,8.66
2019-03-09T04:33:27.161Z,8.66
2019-03-09T04:34:27.115Z,8.52
2019-03-09T04:35:27.073Z,8.64
2019-03-09T04:36:27.035Z,8.69
2019-03-09T04:37:27.006Z,8.82
2019-03-09T04:38:26.955Z,8.73
2019-03-09T04:39:26.910Z,8.73
2019-03-09T04:40:26.865Z,8.81
2019-03-09T04:41:26.826Z,8.85
2019-03-09T04:42:26.788Z,8.82
2019-03-09T04:43:26.751Z,8.79
2019-03-09T04:44:27.344Z,8.85
2019-03-09T04:45:26.664Z,8.87
2019-03-09T04:46:26.620Z,8.89
2019-03-09T04:47:26.578Z,8.85
2019-03-09T04:48:26.537Z,8.92
2019-03-09T04:49:26.500Z,8.85
2019-03-09T04:50:26.461Z,8.85
2019-03-09T04:51:26.419Z,9.03
2019-03-09T04:52:26.373Z,9.03
2019-03-09T04:53:26.341Z,9.10
2019-03-09T04:54:26.295Z,9.04
2019-03-09T04:55:26.256Z,9.11
2019-03-09T04:56:26.215Z,9.04
2019-03-09T04:57:26.173Z,9.21
2019-03-09T04:58:26.129Z,9.21
2019-03-09T04:59:26.088Z,9.22
2019-03-09T05:00:26.048Z,9.34
2019-03-09T05:01:26.008Z,9.31
2019-03-09T05:02:25.969Z,9.37
2019-03-09T05:03:25.931Z,9.31
2019-03-09T05:04:25.892Z,9.25
2019-03-09T05:05:25.847Z,9.36
2019-03-09T05:06:25.805Z,9.32
2019-03-09T05:07:25.763Z,9.34
2019-03-09T05:08:25.739Z,9.26
2019-03-09T05:09:25.683Z,9.39
2019-03-09T05:10:25.648Z,9.46
2019-03-09T05:11:25.597Z,9.41
2019-03-09T05:12:25.557Z,9.47
2019-03-09T05:13:25.519Z,9.47
2019-03-09T05:14:25.479Z,9.39
2019-03-09T05:15:25.442Z,9.55
2019-03-09T05:16:25.399Z,9.64
2019-03-09T05:17:25.359Z,9.55
2019-03-09T05:18:25.314Z,9.50
2019-03-09T05:19:25.274Z,9.56
2019-03-09T05:20:25.233Z,9.56
2019-03-09T05:21:25.193Z,9.58
2019-03-09T05:22:25.155Z,9.61
2019-03-09T05:23:25.113Z,9.64
2019-03-09T05:24:25.070Z,9.66
2019-03-09T05:25:25.028Z,9.58
2019-03-09T05:26:24.993Z,9.56
2019-03-09T05:27:24.951Z,9.54
2019-03-09T05:28:24.910Z,9.61
2019-03-09T05:29:24.872Z,9.55
2019-03-09T05:30:24.830Z,9.56
2019-03-09T05:31:24.786Z,9.59
2019-03-09T05:32:24.745Z,9.72
2019-03-09T05:33:24.704Z,9.62
2019-03-09T05:34:24.670Z,9.68
2019-03-09T05:35:24.626Z,9.72
2019-03-09T05:36:24.587Z,9.64
2019-03-09T05:37:24.547Z,9.61
2019-03-09T05:38:24.502Z,9.55
2019-03-09T05:39:24.462Z,9.62
2019-03-09T05:40:24.422Z,9.58
2019-03-09T05:41:24.385Z,9.56
2019-03-09T05:42:24.338Z,9.56
2019-03-09T05:43:24.298Z,9.56
2019-03-09T05:44:24.258Z,9.55
2019-03-09T05:45:24.216Z,9.56
2019-03-09T05:46:24.184Z,9.55
2019-03-09T05:47:24.139Z,9.55
2019-03-09T05:48:24.100Z,9.50
2019-03-09T05:49:24.066Z,9.44
2019-03-09T05:50:24.015Z,9.54
2019-03-09T05:51:23.975Z,9.61
2019-03-09T05:52:23.938Z,9.59
2019-03-09T05:53:23.894Z,9.72
2019-03-09T05:54:23.858Z,9.64
2019-03-09T05:55:23.815Z,9.65
2019-03-09T05:56:23.776Z,9.66
2019-03-09T05:57:23.732Z,9.72
2019-03-09T05:58:23.696Z,9.65
2019-03-09T05:59:23.653Z,9.72
2019-03-09T06:00:23.614Z,9.72
2019-03-09T06:01:23.577Z,9.69
2019-03-09T06:02:23.527Z,9.72
2019-03-09T06:03:23.489Z,9.65
2019-03-09T06:04:23.449Z,9.56
2019-03-09T06:05:23.407Z,9.62
2019-03-09T06:06:23.377Z,9.66
2019-03-09T06:07:23.329Z,9.59
2019-03-09T06:08:23.289Z,9.66
2019-03-09T06:09:23.252Z,9.58
2019-03-09T06:10:23.203Z,9.68
2019-03-09T06:11:23.167Z,9.66
2019-03-09T06:12:23.127Z,9.72
2019-03-09T06:13:23.089Z,9.69
2019-03-09T06:14:23.042Z,9.56
2019-03-09T06:15:23.007Z,9.56
2019-03-09T06:16:22.964Z,9.51
2019-03-09T06:17:22.921Z,9.54
2019-03-09T06:18:22.886Z,9.59
2019-03-09T06:19:22.847Z,9.58
2019-03-09T06:20:22.806Z,9.74
2019-03-09T06:21:22.766Z,9.72
2019-03-09T06:22:22.720Z,9.48
2019-03-09T06:23:22.685Z,9.54
2019-03-09T06:24:22.640Z,9.56
2019-03-09T06:25:22.599Z,9.56
2019-03-09T06:26:22.564Z,9.54
2019-03-09T06:27:22.527Z,9.54
2019-03-09T06:28:22.479Z,9.58
2019-03-09T06:29:22.436Z,9.59
2019-03-09T06:30:22.400Z,9.59
2019-03-09T06:31:22.364Z,9.62
2019-03-09T06:32:22.318Z,9.56
2019-03-09T06:33:22.282Z,9.59
2019-03-09T06:34:22.235Z,9.62
2019-03-09T06:35:22.199Z,9.69
2019-03-09T06:36:22.163Z,9.64
2019-03-09T06:37:22.117Z,9.61
2019-03-09T06:38:22.079Z,9.65
2019-03-09T06:39:22.041Z,9.66
2019-03-09T06:40:22.009Z,9.73
2019-03-09T06:41:21.962Z,9.80
2019-03-09T06:42:21.944Z,9.82
2019-03-09T06:43:21.873Z,9.87
2019-03-09T06:44:21.836Z,9.87
2019-03-09T06:45:21.798Z,9.94
2019-03-09T06:46:21.754Z,10.01
2019-03-09T06:47:21.713Z,10.01
2019-03-09T06:48:21.674Z,10.04
2019-03-09T06:49:21.631Z,10.01
2019-03-09T06:50:21.596Z,9.99
2019-03-09T06:51:21.552Z,9.98
2019-03-09T06:52:21.517Z,9.95
2019-03-09T06:53:21.478Z,10.04
2019-03-09T06:54:21.428Z,10.02
2019-03-09T06:55:21.390Z,10.04
2019-03-09T06:56:21.351Z,9.94
2019-03-09T06:57:21.310Z,9.95
2019-03-09T06:58:21.273Z,10.09
2019-03-09T06:59:21.235Z,9.95
2019-03-09T07:00:21.195Z,9.95
2019-03-09T07:01:21.148Z,10.04
2019-03-09T07:02:21.115Z,9.95
2019-03-09T07:03:21.077Z,9.99
2019-03-09T07:04:21.035Z,9.98
2019-03-09T07:05:20.995Z,9.98
2019-03-09T07:06:20.954Z,10.04
2019-03-09T07:07:20.909Z,9.99
2019-03-09T07:08:20.869Z,9.99
2019-03-09T07:09:20.828Z,10.04
2019-03-09T07:10:20.794Z,10.02
2019-03-09T07:11:20.750Z,10.04
2019-03-09T07:12:20.711Z,10.10
2019-03-09T07:13:20.673Z,10.10
2019-03-09T07:14:20.626Z,10.10
2019-03-09T07:15:20.594Z,10.15
2019-03-09T07:16:20.551Z,10.09
2019-03-09T07:17:20.513Z,10.10
2019-03-09T07:18:20.467Z,10.07
2019-03-09T07:19:20.430Z,10.04
2019-03-09T07:20:20.391Z,10.12
2019-03-09T07:21:20.346Z,10.07
2019-03-09T07:22:20.312Z,10.16
2019-03-09T07:23:20.269Z,10.13
2019-03-09T07:24:20.230Z,10.04
2019-03-09T07:25:20.192Z,10.07
2019-03-09T07:26:20.145Z,10.10
2019-03-09T07:27:20.113Z,10.12
2019-03-09T07:28:20.072Z,10.10
2019-03-09T07:29:20.025Z,10.17
2019-03-09T07:30:19.992Z,10.15
2019-03-09T07:31:19.954Z,10.16
2019-03-09T07:32:19.908Z,10.13
2019-03-09T07:33:19.866Z,10.23
2019-03-09T07:34:19.829Z,10.15
2019-03-09T07:35:19.790Z,10.15
2019-03-09T07:36:19.755Z,10.23
2019-03-09T07:37:19.718Z,10.20
2019-03-09T07:38:19.667Z,10.23
2019-03-09T07:39:19.629Z,10.35
2019-03-09T07:40:19.587Z,10.33
2019-03-09T07:41:19.551Z,10.25
2019-03-09T07:42:19.514Z,10.33
2019-03-09T07:43:19.472Z,10.34
2019-03-09T07:44:19.430Z,10.38
2019-03-09T07:45:19.397Z,10.31
2019-03-09T07:46:19.351Z,10.40
2019-03-09T07:47:19.310Z,10.41
2019-03-09T07:48:19.270Z,10.44
2019-03-09T07:49:19.233Z,10.42
2019-03-09T07:50:19.189Z,10.40
2019-03-09T07:51:19.148Z,10.40
2019-03-09T07:52:19.108Z,10.40
2019-03-09T07:53:19.066Z,10.38
2019-03-09T07:54:19.032Z,10.37
2019-03-09T07:55:18.992Z,10.48
2019-03-09T07:56:18.950Z,10.46
2019-03-09T07:57:18.913Z,10.49
2019-03-09T07:58:18.870Z,10.57
2019-03-09T07:59:18.831Z,10.46
2019-03-09T08:00:18.792Z,10.51
2019-03-09T08:01:18.750Z,10.48
2019-03-09T08:02:18.716Z,10.46
2019-03-09T08:03:18.675Z,10.38
2019-03-09T08:04:18.658Z,10.48
2019-03-09T08:05:18.590Z,10.53
2019-03-09T08:06:18.557Z,10.56
2019-03-09T08:07:18.513Z,10.46
2019-03-09T08:08:18.476Z,10.46
2019-03-09T08:09:18.436Z,10.42
2019-03-09T08:10:18.389Z,10.41
2019-03-09T08:11:18.351Z,10.53
2019-03-09T08:12:18.314Z,10.54
2019-03-09T08:13:18.270Z,10.51
2019-03-09T08:14:18.236Z,10.41
2019-03-09T08:15:18.195Z,10.56
2019-03-09T08:16:18.154Z,10.42
2019-03-09T08:17:18.117Z,10.41
2019-03-09T08:18:18.071Z,10.56
2019-03-09T08:19:18.034Z,10.46
2019-03-09T08:20:17.996Z,10.53
2019-03-09T08:21:17.964Z,10.42
2019-03-09T08:22:17.912Z,10.48
2019-03-09T08:23:17.888Z,10.48
2019-03-09T08:24:17.838Z,10.42
2019-03-09T08:25:17.798Z,10.42
2019-03-09T08:26:17.763Z,10.53
2019-03-09T08:27:17.727Z,10.51
2019-03-09T08:28:17.694Z,10.53
2019-03-09T08:29:17.643Z,10.56
2019-03-09T08:30:17.595Z,10.57
2019-03-09T08:31:17.557Z,10.59
2019-03-09T08:32:17.523Z,10.67
2019-03-09T08:33:17.476Z,10.60
2019-03-09T08:34:17.449Z,10.67
2019-03-09T08:35:17.401Z,10.64
2019-03-09T08:36:17.401Z,10.69
2019-03-09T08:37:17.378Z,10.67
2019-03-09T08:38:17.291Z,10.76
2019-03-09T08:39:17.246Z,10.64
2019-03-09T08:40:17.212Z,10.64
2019-03-09T08:41:17.185Z,10.69
2019-03-09T08:42:17.137Z,10.71
2019-03-09T08:43:17.083Z,10.67
2019-03-09T08:44:17.046Z,10.69
2019-03-09T08:45:17.009Z,10.72
2019-03-09T08:46:16.975Z,10.68
2019-03-09T08:47:16.935Z,10.75
2019-03-09T08:48:16.891Z,10.76
2019-03-09T08:49:16.848Z,10.81
2019-03-09T08:50:16.829Z,10.84
2019-03-09T08:51:16.800Z,10.82
2019-03-09T08:52:16.737Z,10.74
2019-03-09T08:53:16.693Z,10.82
2019-03-09T08:54:16.686Z,10.76
2019-03-09T08:55:18.019Z,10.82
2019-03-09T08:56:16.567Z,10.82
2019-03-09T08:57:16.524Z,10.92
2019-03-09T08:58:16.494Z,10.81
2019-03-09T08:59:16.500Z,10.79
2019-03-09T09:00:16.437Z,10.86
2019-03-09T09:01:16.374Z,10.93
2019-03-09T09:02:16.344Z,10.97
2019-03-09T09:03:16.297Z,10.92
2019-03-09T09:04:16.254Z,10.97
2019-03-09T09:05:16.213Z,10.99
2019-03-09T09:06:16.176Z,11.05
2019-03-09T09:07:16.139Z,10.97
2019-03-09T09:08:16.096Z,11.05
2019-03-09T09:09:16.072Z,11.12
2019-03-09T09:10:16.018Z,11.22
2019-03-09T09:11:15.982Z,11.15
2019-03-09T09:12:15.939Z,11.30
2019-03-09T09:13:15.902Z,11.36
2019-03-09T09:14:15.858Z,11.25
2019-03-09T09:15:15.846Z,11.27
2019-03-09T09:16:15.784Z,11.43
2019-03-09T09:17:15.739Z,11.48
2019-03-09T09:18:15.708Z,11.36
2019-03-09T09:19:15.667Z,11.30
2019-03-09T09:20:15.629Z,11.32
2019-03-09T09:21:15.587Z,11.29
2019-03-09T09:22:15.552Z,11.22
2019-03-09T09:23:15.507Z,11.18
2019-03-09T09:24:15.520Z,11.17
2019-03-09T09:25:15.432Z,11.17
2019-03-09T09:26:15.393Z,11.05
2019-03-09T09:27:15.350Z,11.10
2019-03-09T09:28:15.314Z,11.11
2019-03-09T09:29:15.274Z,11.04
2019-03-09T09:30:15.235Z,11.10
2019-03-09T09:31:15.196Z,11.19
2019-03-09T09:32:15.154Z,11.15
2019-03-09T09:33:15.111Z,11.18
2019-03-09T09:34:15.079Z,11.19
2019-03-09T09:35:15.039Z,11.25
2019-03-09T09:36:15.004Z,11.23
2019-03-09T09:37:14.972Z,11.30
2019-03-09T09:38:14.914Z,11.23
2019-03-09T09:39:14.882Z,11.41
2019-03-09T09:40:14.840Z,11.33
2019-03-09T09:41:14.803Z,11.32
2019-03-09T09:42:14.758Z,11.30
2019-03-09T09:43:14.726Z,11.36
2019-03-09T09:57:27.247Z,11.54
2019-03-09T09:58:27.172Z,11.60
2019-03-09T09:59:27.129Z,11.70
2019-03-09T10:00:27.088Z,11.66
2019-03-09T10:01:27.041Z,11.65
2019-03-09T10:02:27.003Z,11.69
2019-03-09T10:03:27.019Z,11.73
2019-03-09T10:04:26.926Z,11.69
2019-03-09T10:05:26.884Z,11.73
2019-03-09T10:06:26.840Z,11.83
2019-03-09T10:07:26.805Z,11.69
2019-03-09T10:08:26.761Z,11.83
2019-03-09T10:09:26.717Z,11.90
2019-03-09T10:10:26.676Z,11.81
2019-03-09T10:11:26.636Z,11.83
2019-03-09T10:12:35.796Z,11.99
2019-03-09T15:41:11.716Z,12.04
2019-03-09T15:42:11.652Z,12.07
2019-03-09T15:43:11.600Z,11.97
2019-03-09T15:44:11.556Z,11.99
2019-03-09T15:45:11.515Z,12.06
2019-03-09T15:46:11.480Z,12.06
2019-03-09T15:47:11.435Z,12.02
2019-03-09T15:48:11.394Z,11.99
2019-03-09T15:49:11.357Z,12.00
2019-03-09T15:50:11.309Z,12.02
2019-03-09T15:51:11.270Z,12.17
2019-03-09T15:52:11.242Z,12.09
2019-03-09T15:53:11.190Z,12.21
2019-03-09T15:54:11.154Z,12.15
2019-03-09T15:55:11.112Z,12.18
2019-03-09T15:56:11.069Z,12.18
2019-03-09T15:57:11.029Z,12.10
2019-03-09T15:58:10.999Z,12.20
2019-03-09T15:59:10.956Z,12.10
2019-03-09T16:00:10.917Z,12.13
2019-03-09T16:01:10.881Z,12.02
2019-03-09T16:02:10.830Z,12.02
2019-03-09T16:03:10.795Z,12.00
2019-03-09T16:04:10.759Z,12.07
2019-03-09T16:05:10.714Z,12.09
2019-03-09T16:06:10.682Z,12.00
2019-03-09T16:07:10.641Z,12.10
2019-03-09T16:08:10.603Z,12.07
2019-03-09T16:09:10.565Z,12.10
2019-03-09T16:10:10.525Z,12.13
2019-03-09T16:11:10.482Z,12.06
2019-03-09T21:57:55.880Z,9.21
2019-03-09T21:58:46.733Z,9.23
2019-03-09T21:59:46.678Z,9.26
2019-03-09T22:00:46.634Z,9.23
2019-03-09T22:01:46.592Z,9.19
2019-03-09T22:02:46.548Z,9.29
2019-03-09T22:03:46.502Z,9.36
2019-03-09T22:04:46.461Z,9.23
2019-03-09T22:05:46.415Z,9.26
2019-03-09T22:06:55.035Z,9.26
2019-03-09T22:08:50.785Z,9.37
2019-03-09T22:09:50.708Z,9.25
2019-03-09T22:10:50.664Z,9.21
2019-03-09T22:11:50.625Z,9.31
2019-03-09T22:12:50.584Z,9.26
2019-03-09T22:13:50.547Z,9.28
2019-03-09T22:14:50.505Z,9.28
2019-03-09T22:15:50.492Z,9.28
2019-03-09T22:16:56.636Z,9.31
2019-03-09T22:17:50.379Z,9.29
2019-03-09T22:18:50.338Z,9.22
2019-03-09T22:19:50.298Z,9.23
2019-03-09T22:20:50.258Z,9.32
2019-03-09T22:21:50.210Z,9.32
2019-03-09T22:22:50.169Z,9.32
2019-03-09T22:23:50.127Z,9.31
2019-03-09T22:24:50.092Z,9.26
2019-03-09T22:25:50.050Z,9.28
2019-03-09T22:26:50.013Z,9.23
2019-03-09T22:27:49.982Z,9.31
2019-03-09T22:28:49.927Z,9.26
2019-03-09T22:29:49.883Z,9.37
2019-03-09T22:30:58.499Z,9.26
2019-03-09T22:33:04.682Z,9.29
2019-03-09T22:33:54.195Z,9.26
2019-03-09T22:34:54.155Z,9.22
2019-03-09T22:35:54.129Z,9.32
2019-03-09T22:36:54.074Z,9.29
2019-03-09T22:37:54.026Z,9.29
2019-03-09T22:38:53.989Z,9.26
2019-03-09T22:39:53.953Z,9.32
2019-03-09T22:40:53.916Z,9.31
2019-03-09T22:41:53.871Z,9.32
2019-03-09T22:42:53.833Z,9.34
2019-03-09T22:43:53.790Z,9.28
2019-03-09T22:44:53.746Z,9.28
2019-03-09T22:45:53.702Z,9.29
2019-03-09T22:46:53.672Z,9.28
2019-03-09T22:47:53.629Z,9.34
2019-03-09T22:48:53.585Z,9.25
2019-03-09T22:49:53.546Z,9.28
2019-03-09T22:50:53.502Z,9.34
2019-03-09T22:51:53.464Z,9.37
2019-03-09T22:52:53.426Z,9.28
2019-03-09T22:53:53.388Z,9.28
2019-03-09T22:54:53.347Z,9.32
2019-03-09T22:55:53.304Z,9.37
2019-03-09T22:56:53.259Z,9.25
2019-03-09T22:57:53.217Z,9.28
2019-03-09T22:58:53.178Z,9.29
2019-03-09T22:59:53.137Z,9.39
2019-03-09T23:00:53.101Z,9.28
2019-03-09T23:01:53.059Z,9.29
2019-03-09T23:02:53.018Z,9.25
2019-03-09T23:03:52.978Z,9.23
2019-03-09T23:04:52.942Z,9.31
2019-03-09T23:05:52.900Z,9.28
2019-03-09T23:06:52.861Z,9.22
2019-03-09T23:07:52.815Z,9.39
2019-03-09T23:08:52.773Z,9.31
2019-03-09T23:09:52.730Z,9.31
2019-03-09T23:10:52.692Z,9.31
2019-03-09T23:11:52.652Z,9.32
2019-03-09T23:12:52.616Z,9.31
2019-03-09T23:13:52.577Z,9.29
2019-03-09T23:14:52.534Z,9.31
2019-03-09T23:15:52.494Z,9.26
2019-03-09T23:16:52.452Z,9.29
2019-03-09T23:17:52.409Z,9.28
2019-03-09T23:18:52.374Z,9.32
2019-03-09T23:19:52.332Z,9.23
2019-03-09T23:20:52.289Z,9.32
2019-03-09T23:21:52.246Z,9.32
2019-03-09T23:22:52.207Z,9.31
2019-03-09T23:23:52.167Z,9.28
2019-03-09T23:24:52.155Z,9.28
2019-03-09T23:25:52.099Z,9.34
2019-03-09T23:26:52.050Z,9.31
2019-03-09T23:27:52.016Z,9.28
2019-03-09T23:28:51.966Z,9.37
2019-03-09T23:29:51.923Z,9.34
2019-03-09T23:30:51.885Z,9.26
2019-03-09T23:31:51.845Z,9.34
2019-03-09T23:32:51.809Z,9.32
2019-03-09T23:33:51.769Z,9.36
2019-03-09T23:34:51.724Z,9.34
2019-03-09T23:35:51.685Z,9.29
2019-03-09T23:36:51.651Z,9.26
2019-03-09T23:37:51.609Z,9.34
2019-03-09T23:38:51.569Z,9.36
2019-03-09T23:39:51.527Z,9.32
2019-03-09T23:40:51.484Z,9.25
2019-03-09T23:41:51.440Z,9.25
2019-03-09T23:42:51.400Z,9.25
2019-03-09T23:43:51.361Z,9.32
2019-03-09T23:44:51.327Z,9.29
2019-03-09T23:45:51.289Z,9.25
2019-03-09T23:46:51.246Z,9.36
2019-03-09T23:47:51.206Z,9.28
2019-03-09T23:48:51.162Z,9.28
2019-03-09T23:49:51.118Z,9.36
2019-03-09T23:50:51.082Z,9.21
2019-03-09T23:51:51.041Z,9.25
2019-03-09T23:52:51.082Z,9.23
2019-03-09T23:53:50.955Z,9.29
2019-03-09T23:54:50.921Z,9.31
2019-03-09T23:55:50.877Z,9.29
2019-03-09T23:56:50.862Z,9.19
2019-03-09T23:57:50.800Z,9.18
2019-03-09T23:58:50.765Z,9.21
2019-03-09T23:59:50.722Z,9.21
